Time;durP1;ratioP1;P1;durP2;ratioP2;P2;SDS_P1;SDS_P2;PMS_P1;PMS_P2;Temp;Humidity;BMP_temperature;BMP_pressure;BME280_temperature;BME280_humidity;BME280_pressure;Samples;Min_cycle;Max_cycle;Signal;HPM_P1;HPM_P2
2021/04/24 00:00:13;;;;;;;4.18;2.63;;;8.40;69.30;;;;;;4970755;28;20195;-92
2021/04/24 00:02:40;;;;;;;4.60;2.15;;;8.30;69.50;;;;;;4971696;28;20027;-95
2021/04/24 00:05:07;;;;;;;8.68;2.60;;;8.20;70.40;;;;;;4960005;29;20051;-92
2021/04/24 00:07:33;;;;;;;8.60;3.00;;;8.20;69.90;;;;;;4953972;28;20438;-92
2021/04/24 00:09:59;;;;;;;8.20;2.75;;;8.10;70.70;;;;;;4963514;28;20031;-93
2021/04/24 00:12:25;;;;;;;7.15;2.60;;;8.10;70.00;;;;;;4945928;29;20118;-92
2021/04/24 00:14:50;;;;;;;10.63;3.33;;;8.10;70.20;;;;;;4983130;28;20073;-92
2021/04/24 00:17:16;;;;;;;4.82;2.33;;;8.10;70.30;;;;;;4989061;28;20008;-93
2021/04/24 00:19:42;;;;;;;9.57;2.58;;;8.00;70.40;;;;;;4991917;28;20012;-92
2021/04/24 00:22:07;;;;;;;9.45;3.17;;;8.00;70.50;;;;;;4976045;28;20022;-90
2021/04/24 00:24:33;;;;;;;5.85;2.70;;;7.90;70.50;;;;;;4987002;28;20031;-91
2021/04/24 00:26:58;;;;;;;5.82;2.80;;;7.90;70.70;;;;;;4961553;28;20019;-92
2021/04/24 00:29:24;;;;;;;8.10;3.10;;;7.80;70.80;;;;;;4969473;28;20019;-90
2021/04/24 00:31:50;;;;;;;5.32;2.70;;;7.80;70.90;;;;;;4952092;28;20498;-91
2021/04/24 00:34:15;;;;;;;8.30;3.05;;;7.70;71.00;;;;;;4967972;28;20490;-91
2021/04/24 00:36:41;;;;;;;8.30;3.13;;;7.70;71.10;;;;;;4951354;28;20026;-91
2021/04/24 00:39:07;;;;;;;5.78;2.90;;;7.60;71.30;;;;;;4952670;28;20031;-92
2021/04/24 00:41:33;;;;;;;5.72;2.60;;;7.50;71.40;;;;;;4967367;28;20019;-93
2021/04/24 00:43:59;;;;;;;9.23;3.28;;;7.40;71.70;;;;;;4969002;28;20513;-92
2021/04/24 00:46:24;;;;;;;7.93;2.67;;;7.50;71.90;;;;;;4950216;28;20023;-93
2021/04/24 00:48:50;;;;;;;4.93;2.40;;;7.50;72.60;;;;;;4949299;28;20132;-93
2021/04/24 00:51:15;;;;;;;5.60;2.97;;;7.50;72.00;;;;;;4968051;28;20027;-94
2021/04/24 00:53:44;;;;;;;8.18;2.50;;;7.50;72.00;;;;;;4969506;28;20041;-93
2021/04/24 00:56:10;;;;;;;8.30;3.95;;;7.50;72.10;;;;;;4952291;28;20441;-92
2021/04/24 00:58:36;;;;;;;7.78;2.95;;;7.40;72.00;;;;;;4969515;28;20023;-92
2021/04/24 01:01:03;;;;;;;6.32;2.83;;;7.40;72.30;;;;;;4969050;28;20023;-93
2021/04/24 01:03:29;;;;;;;5.95;2.70;;;7.30;72.30;;;;;;4960528;28;20018;-91
2021/04/24 01:05:54;;;;;;;8.50;2.65;;;7.30;72.50;;;;;;4966138;28;20508;-91
2021/04/24 01:08:20;;;;;;;5.75;2.63;;;7.20;72.60;;;;;;4967967;28;20022;-92
2021/04/24 01:10:46;;;;;;;6.43;2.75;;;7.20;72.60;;;;;;4950866;28;20491;-94
2021/04/24 01:13:14;;;;;;;5.25;2.78;;;7.20;72.70;;;;;;4965897;28;20035;-92
2021/04/24 01:15:41;;;;;;;11.98;3.13;;;7.10;72.90;;;;;;4950334;28;20062;-93
2021/04/24 01:18:08;;;;;;;7.22;2.65;;;7.10;73.00;;;;;;4965727;28;20457;-91
2021/04/24 01:20:35;;;;;;;6.75;2.42;;;7.10;73.10;;;;;;4968085;28;20061;-91
2021/04/24 01:23:03;;;;;;;5.03;2.88;;;7.00;73.20;;;;;;4947805;28;20019;-92
2021/04/24 01:25:29;;;;;;;6.53;2.38;;;6.90;73.50;;;;;;4965062;28;20165;-91
2021/04/24 01:27:58;;;;;;;7.10;2.63;;;6.90;73.60;;;;;;4948705;28;20050;-92
2021/04/24 01:30:33;;;;;;;11.35;3.28;;;6.80;73.80;;;;;;4951313;28;20027;-90
2021/04/24 01:32:59;;;;;;;9.18;2.75;;;6.80;74.70;;;;;;4949811;28;20057;-91
2021/04/24 01:35:28;;;;;;;8.75;2.78;;;6.70;74.10;;;;;;4968677;28;20118;-91
2021/04/24 01:37:55;;;;;;;6.68;3.13;;;6.70;74.30;;;;;;4966796;28;20026;-92
2021/04/24 01:40:21;;;;;;;5.55;2.58;;;6.70;74.50;;;;;;4966963;28;20027;-91
2021/04/24 01:42:48;;;;;;;5.93;2.90;;;6.60;74.60;;;;;;4969464;28;20023;-91
2021/04/24 01:45:15;;;;;;;8.15;3.03;;;6.60;74.90;;;;;;4969083;28;20098;-92
2021/04/24 01:47:44;;;;;;;7.22;2.75;;;6.50;75.00;;;;;;4963343;28;20111;-92
2021/04/24 01:50:13;;;;;;;8.40;3.03;;;6.50;75.20;;;;;;4963801;28;20063;-91
2021/04/24 01:52:42;;;;;;;3.83;2.78;;;6.40;75.40;;;;;;4967932;28;20015;-92
2021/04/24 01:55:12;;;;;;;9.85;3.25;;;6.50;75.60;;;;;;4965591;28;20046;-91
2021/04/24 01:57:43;;;;;;;10.15;2.60;;;6.50;75.70;;;;;;4953172;28;20028;-91
2021/04/24 02:00:10;;;;;;;;;;;6.50;75.80;;;;;;4949332;28;20030;-91
2021/04/24 02:02:36;;;;;;;5.30;2.40;;;6.60;75.70;;;;;;4970997;28;19945;-90
2021/04/24 02:05:06;;;;;;;4.28;2.92;;;6.50;75.50;;;;;;4970869;28;20074;-91
2021/04/24 02:07:32;;;;;;;5.53;2.47;;;6.50;75.40;;;;;;4961705;28;20027;-90
2021/04/24 02:09:57;;;;;;;8.05;2.78;;;6.50;75.50;;;;;;4945465;28;20038;-91
2021/04/24 02:12:23;;;;;;;7.65;2.90;;;6.50;75.80;;;;;;4947202;28;20037;-91
2021/04/24 02:14:50;;;;;;;8.77;3.90;;;6.40;75.80;;;;;;4969058;28;20041;-91
2021/04/24 02:17:22;;;;;;;7.18;3.35;;;6.40;76.70;;;;;;4973570;28;20070;-92
2021/04/24 02:19:50;;;;;;;7.63;2.80;;;6.30;76.10;;;;;;4955435;28;20108;-91
2021/04/24 02:22:17;;;;;;;5.18;2.85;;;6.20;76.30;;;;;;4965107;28;20026;-90
2021/04/24 02:24:47;;;;;;;7.60;3.33;;;6.10;76.60;;;;;;4976098;28;20029;-90
2021/04/24 02:27:13;;;;;;;5.75;2.83;;;6.10;76.90;;;;;;4971308;28;20023;-91
2021/04/24 02:29:41;;;;;;;6.32;2.88;;;6.00;77.10;;;;;;4966105;28;20042;-90
2021/04/24 02:32:08;;;;;;;8.45;4.15;;;6.00;77.40;;;;;;4950220;28;20039;-90
2021/04/24 02:34:36;;;;;;;7.10;2.80;;;6.00;77.50;;;;;;4974852;28;20046;-92
2021/04/24 02:37:02;;;;;;;5.80;2.80;;;6.00;77.70;;;;;;4977838;28;20023;-91
2021/04/24 02:39:36;;;;;;;13.02;3.40;;;5.90;77.80;;;;;;4959057;28;20023;-91
2021/04/24 02:42:04;;;;;;;12.23;4.07;;;5.90;78.00;;;;;;4977201;28;20056;-90
2021/04/24 02:44:31;;;;;;;5.38;2.63;;;5.90;78.10;;;;;;4967305;28;20027;-91
2021/04/24 02:46:58;;;;;;;8.75;2.92;;;5.90;78.30;;;;;;4973442;28;20046;-92
2021/04/24 02:49:24;;;;;;;9.18;3.40;;;5.90;78.40;;;;;;4967701;28;20031;-92
2021/04/24 02:51:50;;;;;;;9.98;3.63;;;5.80;78.40;;;;;;4954251;28;20429;-93
2021/04/24 02:54:16;;;;;;;6.07;3.05;;;5.70;78.80;;;;;;4957749;28;20085;-91
2021/04/24 02:56:43;;;;;;;6.22;3.20;;;5.60;79.10;;;;;;4967181;28;20122;-90
2021/04/24 02:59:08;;;;;;;7.97;2.97;;;5.40;79.50;;;;;;4946406;28;20034;-93
2021/04/24 03:01:34;;;;;;;6.05;3.28;;;5.30;79.90;;;;;;4949184;28;20031;-92
2021/04/24 03:04:00;;;;;;;7.80;3.35;;;5.20;80.30;;;;;;4948397;28;20067;-93
2021/04/24 03:06:25;;;;;;;8.38;3.10;;;5.20;80.90;;;;;;4947452;28;20078;-91
2021/04/24 03:08:51;;;;;;;6.95;3.03;;;5.10;81.10;;;;;;4966684;28;20023;-90
2021/04/24 03:11:17;;;;;;;8.25;3.33;;;5.10;81.40;;;;;;4967875;28;20446;-91
2021/04/24 03:13:43;;;;;;;7.68;2.95;;;5.10;81.80;;;;;;4949515;28;20545;-93
2021/04/24 03:16:08;;;;;;;6.95;3.38;;;5.10;82.10;;;;;;4943968;28;20035;-89
2021/04/24 03:18:34;;;;;;;6.72;3.35;;;5.10;82.50;;;;;;4950013;28;20033;-92
2021/04/24 03:21:00;;;;;;;7.28;2.80;;;5.10;82.80;;;;;;4951300;28;20058;-93
2021/04/24 03:23:26;;;;;;;7.60;3.10;;;5.10;83.10;;;;;;4948931;28;20077;-92
2021/04/24 03:25:51;;;;;;;5.82;3.13;;;5.00;83.30;;;;;;4949091;28;20057;-89
2021/04/24 03:28:17;;;;;;;6.13;3.22;;;5.00;83.60;;;;;;4946300;28;20023;-90
2021/04/24 03:30:43;;;;;;;7.78;3.05;;;5.00;83.90;;;;;;4947967;28;20038;-90
2021/04/24 03:33:08;;;;;;;6.45;2.83;;;4.90;84.00;;;;;;4943852;29;20075;-90
2021/04/24 03:35:34;;;;;;;6.63;3.08;;;4.90;84.20;;;;;;4965013;28;20070;-90
2021/04/24 03:38:00;;;;;;;7.22;2.72;;;4.90;84.40;;;;;;4963423;28;20027;-90
2021/04/24 03:40:26;;;;;;;8.32;3.03;;;4.90;84.50;;;;;;4957873;28;20466;-90
2021/04/24 03:42:52;;;;;;;6.85;2.80;;;4.70;84.60;;;;;;4963266;28;20047;-92
2021/04/24 03:45:18;;;;;;;5.63;2.92;;;4.70;85.00;;;;;;4959686;28;20030;-90
2021/04/24 03:47:55;;;;;;;5.38;2.83;;;4.70;85.20;;;;;;4962560;28;20026;-90
2021/04/24 03:50:22;;;;;;;6.97;2.70;;;4.70;85.60;;;;;;4960972;28;20073;-91
2021/04/24 03:52:49;;;;;;;6.93;3.15;;;4.70;85.80;;;;;;4986235;28;20041;-90
2021/04/24 03:55:16;;;;;;;6.15;2.45;;;4.70;85.80;;;;;;4991577;28;20035;-92
2021/04/24 03:57:46;;;;;;;7.18;3.42;;;4.70;86.00;;;;;;4986383;28;20109;-90
2021/04/24 04:00:14;;;;;;;7.90;3.40;;;4.70;86.40;;;;;;4966237;28;20044;-90
2021/04/24 04:03:01;;;;;;;7.47;3.20;;;4.70;86.50;;;;;;4968214;28;20046;-91
2021/04/24 04:05:30;;;;;;;9.68;2.90;;;4.60;87.50;;;;;;4970482;28;20055;-91
2021/04/24 04:07:56;;;;;;;4.53;2.92;;;4.60;86.90;;;;;;4969879;28;20030;-89
2021/04/24 04:10:23;;;;;;;5.88;2.85;;;4.60;87.30;;;;;;4968033;28;20406;-92
2021/04/24 04:12:49;;;;;;;5.32;2.92;;;4.60;87.50;;;;;;4952145;28;20101;-92
2021/04/24 04:15:19;;;;;;;7.28;3.00;;;4.50;87.70;;;;;;4970470;28;20059;-90
2021/04/24 04:18:03;;;;;;;7.88;3.65;;;4.50;88.10;;;;;;4951205;28;20070;-91
2021/04/24 04:20:29;;;;;;;6.88;3.40;;;4.40;88.30;;;;;;4953254;28;20056;-93
2021/04/24 04:22:56;;;;;;;4.60;2.95;;;4.40;88.70;;;;;;4950973;28;20027;-91
2021/04/24 04:25:21;;;;;;;7.63;2.83;;;4.40;89.70;;;;;;4953245;28;20390;-92
2021/04/24 04:27:48;;;;;;;8.07;3.33;;;4.40;89.30;;;;;;4974263;28;20034;-89
2021/04/24 04:30:16;;;;;;;7.68;2.85;;;4.40;89.40;;;;;;4951471;28;20031;-93
2021/04/24 04:32:43;;;;;;;6.53;2.90;;;4.40;89.80;;;;;;4974196;28;20047;-91
2021/04/24 04:35:11;;;;;;;8.95;3.42;;;4.40;90.00;;;;;;4979884;28;20478;-92
2021/04/24 04:37:37;;;;;;;4.78;3.10;;;4.40;90.10;;;;;;4979526;28;20037;-91
2021/04/24 04:40:05;;;;;;;5.03;3.20;;;4.40;90.10;;;;;;4979284;28;20118;-90
2021/04/24 04:42:31;;;;;;;6.78;3.20;;;4.40;90.10;;;;;;4980857;28;20023;-92
2021/04/24 04:44:56;;;;;;;7.15;3.30;;;4.30;90.20;;;;;;4979334;28;20394;-92
2021/04/24 04:47:22;;;;;;;5.43;3.10;;;4.30;90.30;;;;;;4979922;28;20027;-91
2021/04/24 04:49:48;;;;;;;9.07;3.10;;;4.30;90.40;;;;;;4961799;28;20030;-92
2021/04/24 04:52:13;;;;;;;6.82;3.35;;;4.30;90.40;;;;;;4978701;28;20509;-92
2021/04/24 04:54:39;;;;;;;5.95;3.47;;;4.30;90.50;;;;;;4961822;28;20046;-92
2021/04/24 04:57:05;;;;;;;6.50;3.47;;;4.20;90.60;;;;;;4978816;28;20033;-91
2021/04/24 04:59:31;;;;;;;7.63;3.35;;;4.20;90.60;;;;;;4970429;28;20103;-91
2021/04/24 05:01:57;;;;;;;6.00;2.85;;;4.20;90.60;;;;;;4950432;28;20026;-92
2021/04/24 05:04:23;;;;;;;5.75;3.08;;;4.10;90.70;;;;;;4969062;28;20027;-94
2021/04/24 05:06:49;;;;;;;4.45;3.08;;;4.10;90.90;;;;;;4968581;28;20034;-92
2021/04/24 05:09:21;;;;;;;8.60;2.88;;;4.10;91.00;;;;;;4949696;28;20121;-92
2021/04/24 05:11:48;;;;;;;8.02;3.72;;;4.10;91.00;;;;;;4969184;28;20110;-92
2021/04/24 05:14:14;;;;;;;5.30;3.10;;;4.00;91.20;;;;;;4958411;28;20054;-92
2021/04/24 05:16:40;;;;;;;10.13;3.75;;;4.00;91.10;;;;;;4963180;28;20039;-94
2021/04/24 05:19:05;;;;;;;5.18;2.55;;;4.00;91.50;;;;;;4975539;28;20026;-92
2021/04/24 05:21:31;;;;;;;6.53;3.22;;;4.00;91.30;;;;;;4960086;28;20024;-92
2021/04/24 05:23:57;;;;;;;4.88;3.13;;;4.00;91.40;;;;;;4963042;29;20038;-94
2021/04/24 05:26:22;;;;;;;6.20;3.35;;;3.90;91.40;;;;;;4942880;29;20041;-93
2021/04/24 05:28:48;;;;;;;8.30;3.20;;;3.90;91.50;;;;;;4942658;29;20027;-92
2021/04/24 05:31:14;;;;;;;8.75;3.75;;;3.90;91.60;;;;;;4959939;29;20063;-93
2021/04/24 05:33:40;;;;;;;7.03;3.45;;;3.80;91.70;;;;;;4949526;28;20041;-93
2021/04/24 05:36:10;;;;;;;5.57;3.20;;;3.80;92.00;;;;;;4952337;28;20546;-93
2021/04/24 05:38:36;;;;;;;5.40;3.17;;;3.70;91.90;;;;;;4967654;28;20023;-92
2021/04/24 05:41:02;;;;;;;5.95;3.33;;;3.70;92.20;;;;;;4949315;28;20502;-92
2021/04/24 05:43:29;;;;;;;6.07;3.40;;;3.70;92.30;;;;;;4952457;28;20019;-92
2021/04/24 05:45:55;;;;;;;5.70;3.55;;;3.70;92.40;;;;;;4951455;29;20038;-92
2021/04/24 05:48:21;;;;;;;7.78;3.53;;;3.70;92.50;;;;;;4969653;28;20039;-92
2021/04/24 05:50:46;;;;;;;11.30;4.28;;;3.60;92.70;;;;;;4971183;28;20022;-93
2021/04/24 05:53:12;;;;;;;8.65;3.85;;;3.60;92.90;;;;;;4950540;28;20046;-92
2021/04/24 05:55:38;;;;;;;6.53;3.58;;;3.60;93.40;;;;;;4946112;29;20058;-92
2021/04/24 05:58:04;;;;;;;7.90;3.90;;;3.60;93.20;;;;;;4971775;28;20055;-91
2021/04/24 06:00:30;;;;;;;9.07;4.50;;;3.50;93.30;;;;;;4966109;28;20026;-92
2021/04/24 06:02:55;;;;;;;11.15;3.92;;;3.60;93.60;;;;;;4951737;28;20030;-93
2021/04/24 06:05:24;;;;;;;11.57;4.82;;;3.60;93.80;;;;;;4967165;28;20031;-92
2021/04/24 06:07:50;;;;;;;11.00;4.90;;;3.60;93.90;;;;;;4964329;28;20024;-91
2021/04/24 06:10:17;;;;;;;12.02;4.32;;;3.60;94.00;;;;;;4952569;28;20030;-91
2021/04/24 06:12:47;;;;;;;13.48;4.28;;;3.50;94.10;;;;;;4972159;28;20038;-92
2021/04/24 06:15:14;;;;;;;16.20;4.20;;;3.50;94.30;;;;;;4947050;28;20036;-91
2021/04/24 06:17:41;;;;;;;11.30;4.40;;;3.50;94.50;;;;;;4963598;28;20151;-91
2021/04/24 06:20:09;;;;;;;10.55;4.40;;;3.50;94.60;;;;;;4973538;28;20026;-92
2021/04/24 06:22:35;;;;;;;5.43;3.60;;;3.50;94.80;;;;;;4943773;29;20103;-92
2021/04/24 06:25:00;;;;;;;8.07;3.60;;;3.60;95.10;;;;;;4966537;28;20071;-91
2021/04/24 06:27:26;;;;;;;6.72;3.30;;;3.60;95.30;;;;;;4948388;28;20446;-92
2021/04/24 06:29:52;;;;;;;11.35;4.15;;;3.70;95.40;;;;;;4964198;28;20034;-92
2021/04/24 06:32:18;;;;;;;14.82;3.83;;;3.80;95.50;;;;;;4966724;28;20074;-91
2021/04/24 06:34:44;;;;;;;7.63;4.55;;;3.80;95.60;;;;;;4944758;28;20039;-90
2021/04/24 06:37:09;;;;;;;9.25;4.07;;;3.90;95.70;;;;;;4949864;28;20019;-90
2021/04/24 06:39:35;;;;;;;8.60;4.53;;;3.90;95.80;;;;;;4948831;28;20154;-91
2021/04/24 06:42:01;;;;;;;15.13;4.97;;;4.00;95.90;;;;;;4959633;28;20019;-89
2021/04/24 06:44:27;;;;;;;17.55;4.88;;;3.90;95.90;;;;;;4940024;29;20035;-92
2021/04/24 06:46:52;;;;;;;9.65;4.53;;;4.00;96.00;;;;;;4957177;29;20041;-90
2021/04/24 06:49:18;;;;;;;12.75;4.28;;;4.00;96.10;;;;;;4956832;29;20023;-91
2021/04/24 06:51:44;;;;;;;13.30;5.22;;;4.00;96.20;;;;;;4961134;28;20371;-92
2021/04/24 06:54:09;;;;;;;12.80;4.65;;;4.10;96.40;;;;;;4964147;28;20030;-91
2021/04/24 06:56:36;;;;;;;10.20;4.72;;;4.10;96.40;;;;;;4964375;28;20098;-90
2021/04/24 06:59:02;;;;;;;12.75;4.13;;;4.20;96.50;;;;;;4945896;28;20018;-89
2021/04/24 07:01:28;;;;;;;13.18;4.93;;;4.20;96.50;;;;;;4960703;28;20058;-88
2021/04/24 07:03:53;;;;;;;13.32;4.65;;;4.30;96.60;;;;;;4947578;28;20027;-90
2021/04/24 07:06:19;;;;;;;11.30;4.63;;;4.40;96.70;;;;;;4962505;28;20475;-90
2021/04/24 07:08:47;;;;;;;10.30;4.38;;;4.50;96.70;;;;;;4969350;28;20035;-94
2021/04/24 07:11:13;;;;;;;10.15;5.18;;;4.60;96.70;;;;;;4952988;28;20042;-90
2021/04/24 07:13:39;;;;;;;13.73;4.72;;;4.70;96.70;;;;;;4947569;28;20399;-90
2021/04/24 07:16:06;;;;;;;8.57;4.65;;;4.80;96.70;;;;;;4957758;28;20403;-89
2021/04/24 07:18:33;;;;;;;10.18;4.13;;;4.80;96.70;;;;;;4942891;29;20027;-88
2021/04/24 07:20:59;;;;;;;10.45;4.88;;;5.00;96.80;;;;;;4939533;29;20026;-91
2021/04/24 07:23:25;;;;;;;11.50;4.20;;;5.10;96.70;;;;;;4958066;29;20031;-90
2021/04/24 07:25:50;;;;;;;11.57;4.40;;;5.30;96.60;;;;;;4959431;28;20027;-91
2021/04/24 07:28:16;;;;;;;9.75;4.70;;;5.40;96.40;;;;;;4946262;29;20035;-91
2021/04/24 07:30:43;;;;;;;11.20;3.97;;;5.60;96.10;;;;;;4957975;29;20058;-91
2021/04/24 07:33:09;;;;;;;8.68;3.95;;;5.70;95.90;;;;;;4957569;29;20056;-92
2021/04/24 07:35:34;;;;;;;10.13;3.88;;;5.90;95.80;;;;;;4942846;29;20039;-92
2021/04/24 07:38:01;;;;;;;9.13;3.85;;;6.00;95.70;;;;;;4970050;29;20011;-91
2021/04/24 07:40:27;;;;;;;12.18;4.53;;;6.20;95.50;;;;;;4966399;29;20028;-92
2021/04/24 07:42:52;;;;;;;9.45;4.72;;;6.40;95.30;;;;;;4958344;29;20051;-91
2021/04/24 07:45:18;;;;;;;8.25;4.00;;;6.50;95.00;;;;;;4962541;29;20040;-91
2021/04/24 07:47:44;;;;;;;7.97;3.85;;;6.60;94.80;;;;;;4971276;29;20011;-92
2021/04/24 07:50:12;;;;;;;12.63;4.25;;;6.70;94.60;;;;;;4971521;29;20091;-92
2021/04/24 07:52:37;;;;;;;10.50;4.10;;;6.90;94.40;;;;;;4949252;29;20054;-92
2021/04/24 07:55:04;;;;;;;12.02;4.32;;;7.00;94.10;;;;;;4955605;29;20035;-92
2021/04/24 07:57:30;;;;;;;9.27;5.28;;;7.10;94.00;;;;;;4946731;29;20070;-92
2021/04/24 07:59:56;;;;;;;12.90;6.00;;;7.30;93.90;;;;;;4945794;29;20028;-92
2021/04/24 08:02:22;;;;;;;17.63;5.95;;;7.40;93.80;;;;;;4945125;29;20030;-93
2021/04/24 08:04:47;;;;;;;11.25;5.65;;;7.50;93.70;;;;;;4945415;29;20024;-91
2021/04/24 08:07:13;;;;;;;12.18;5.55;;;7.60;93.60;;;;;;4945289;29;20461;-92
2021/04/24 08:09:40;;;;;;;12.05;5.22;;;7.80;93.50;;;;;;4945531;29;20494;-91
2021/04/24 08:12:07;;;;;;;7.78;4.40;;;7.80;93.10;;;;;;4948464;29;20051;-93
2021/04/24 08:14:34;;;;;;;8.25;4.95;;;7.90;92.80;;;;;;4970687;29;20620;-90
2021/04/24 08:17:01;;;;;;;14.18;4.53;;;8.00;92.40;;;;;;4953497;29;20027;-91
2021/04/24 08:19:29;;;;;;;9.20;4.88;;;8.20;92.30;;;;;;4952631;29;20042;-94
2021/04/24 08:21:56;;;;;;;9.82;4.65;;;8.30;92.00;;;;;;4951476;29;20020;-93
2021/04/24 08:24:22;;;;;;;9.45;5.05;;;8.40;91.80;;;;;;4949291;29;20027;-92
2021/04/24 08:26:49;;;;;;;11.40;4.93;;;8.50;91.60;;;;;;4947959;29;20046;-93
2021/04/24 08:29:15;;;;;;;11.50;4.30;;;8.70;91.40;;;;;;4940737;29;20083;-91
2021/04/24 08:31:43;;;;;;;10.48;4.72;;;8.90;91.20;;;;;;4945665;28;20074;-93
2021/04/24 08:34:09;;;;;;;8.90;4.25;;;9.00;90.80;;;;;;4947387;29;20035;-90
2021/04/24 08:36:35;;;;;;;11.00;4.80;;;9.20;90.40;;;;;;4943783;29;20031;-91
2021/04/24 08:39:01;;;;;;;10.68;3.97;;;9.40;90.00;;;;;;4943709;29;20471;-92
2021/04/24 08:41:27;;;;;;;11.95;4.28;;;9.60;89.10;;;;;;4943097;29;20517;-93
2021/04/24 08:43:56;;;;;;;16.27;5.20;;;9.80;88.20;;;;;;4960647;29;20027;-91
2021/04/24 08:46:23;;;;;;;21.42;4.97;;;10.00;87.40;;;;;;4960342;29;20524;-91
2021/04/24 08:48:49;;;;;;;14.52;5.40;;;10.10;86.70;;;;;;4960767;29;20034;-91
2021/04/24 08:51:15;;;;;;;12.57;5.72;;;10.30;86.20;;;;;;4960331;29;20520;-92
2021/04/24 08:53:41;;;;;;;10.93;4.55;;;10.50;85.80;;;;;;4960344;29;20027;-92
2021/04/24 08:56:06;;;;;;;7.72;4.68;;;10.70;85.00;;;;;;4944293;29;20035;-91
2021/04/24 08:58:32;;;;;;;10.88;4.63;;;10.90;83.90;;;;;;4946697;29;20034;-90
2021/04/24 09:00:58;;;;;;;8.15;3.90;;;11.00;83.20;;;;;;4943370;29;20118;-90
2021/04/24 09:03:23;;;;;;;11.57;4.70;;;11.20;81.70;;;;;;4928356;29;20033;-91
2021/04/24 09:05:53;;;;;;;8.85;4.05;;;11.30;80.70;;;;;;4944240;29;20023;-91
2021/04/24 09:08:28;;;;;;;7.60;4.57;;;11.40;79.80;;;;;;4943165;29;20651;-92
2021/04/24 09:11:02;;;;;;;9.95;4.63;;;11.60;79.00;;;;;;4939469;29;20315;-89
2021/04/24 09:13:30;;;;;;;9.90;4.13;;;11.80;78.30;;;;;;4940100;29;20035;-89
2021/04/24 09:15:56;;;;;;;9.30;4.20;;;11.90;77.70;;;;;;4940109;29;20054;-90
2021/04/24 09:18:24;;;;;;;9.48;3.42;;;12.10;76.80;;;;;;4940777;29;20030;-88
2021/04/24 09:21:04;;;;;;;15.55;4.32;;;12.30;75.90;;;;;;4940648;29;20031;-88
2021/04/24 09:23:37;;;;;;;7.78;4.53;;;12.50;75.20;;;;;;4937355;29;20106;-88
2021/04/24 09:26:04;;;;;;;15.52;4.80;;;12.70;74.60;;;;;;4921222;29;20032;-89
2021/04/24 09:30:55;;;;;;;9.95;4.75;;;13.00;73.00;;;;;;4922446;29;20039;-89
2021/04/24 09:33:22;;;;;;;8.38;4.57;;;13.10;72.30;;;;;;4922309;29;20059;-90
2021/04/24 09:35:52;;;;;;;11.07;4.95;;;13.10;72.10;;;;;;4923145;29;20047;-87
2021/04/24 09:38:24;;;;;;;12.40;4.90;;;13.20;71.10;;;;;;4939626;29;20032;-89
2021/04/24 09:41:13;;;;;;;9.75;4.95;;;13.30;70.70;;;;;;4952511;29;20028;-88
2021/04/24 09:44:03;;;;;;;10.85;4.82;;;13.40;70.40;;;;;;4939969;29;20590;-89
2021/04/24 09:46:56;;;;;;;9.70;4.28;;;13.60;70.00;;;;;;4949311;29;20062;-89
2021/04/24 09:49:29;;;;;;;13.00;4.65;;;13.70;69.40;;;;;;4943988;29;20118;-89
2021/04/24 09:51:57;;;;;;;8.77;4.32;;;13.80;68.80;;;;;;4944477;28;20509;-90
2021/04/24 09:54:34;;;;;;;8.75;4.78;;;13.90;68.40;;;;;;4950835;28;20039;-90
2021/04/24 09:57:09;;;;;;;10.35;4.80;;;14.10;67.80;;;;;;4940785;29;20027;-90
2021/04/24 09:59:51;;;;;;;13.93;4.70;;;14.20;67.00;;;;;;4946046;29;20141;-89
2021/04/24 10:02:31;;;;;;;11.27;4.90;;;14.40;66.30;;;;;;4944390;29;20063;-90
2021/04/24 10:05:06;;;;;;;9.63;4.50;;;14.60;65.80;;;;;;4943603;29;20051;-91
2021/04/24 10:07:39;;;;;;;8.75;3.85;;;14.80;65.40;;;;;;4944067;29;20074;-91
2021/04/24 10:10:08;;;;;;;5.85;3.63;;;15.00;64.90;;;;;;4943634;29;20041;-90
2021/04/24 10:12:34;;;;;;;12.80;5.15;;;15.10;64.30;;;;;;4959211;29;20460;-91
2021/04/24 10:15:00;;;;;;;9.50;4.65;;;15.10;63.50;;;;;;4939947;29;20553;-91
2021/04/24 10:17:27;;;;;;;8.80;4.32;;;15.20;63.00;;;;;;4940218;29;20031;-90
2021/04/24 10:19:53;;;;;;;10.57;4.72;;;15.20;62.60;;;;;;4940504;29;20082;-90
2021/04/24 10:22:21;;;;;;;9.10;5.35;;;15.30;62.40;;;;;;4958119;29;20487;-92
2021/04/24 10:24:47;;;;;;;10.13;4.72;;;15.30;62.20;;;;;;4940941;29;20035;-91
2021/04/24 10:27:16;;;;;;;14.93;4.88;;;15.40;61.90;;;;;;4957646;29;20586;-93
2021/04/24 10:29:45;;;;;;;13.68;5.93;;;15.50;61.80;;;;;;4939968;29;20031;-92
2021/04/24 10:32:12;;;;;;;9.95;4.85;;;15.50;61.40;;;;;;4939284;29;20047;-90
2021/04/24 10:34:39;;;;;;;16.10;6.78;;;15.60;61.30;;;;;;4955756;29;20035;-91
2021/04/24 10:37:08;;;;;;;8.98;4.45;;;15.80;60.80;;;;;;4938509;29;20035;-92
2021/04/24 10:39:36;;;;;;;9.63;5.05;;;15.80;60.40;;;;;;4938793;29;20027;-91
2021/04/24 10:42:10;;;;;;;12.85;5.57;;;15.90;60.20;;;;;;4938388;29;20094;-95
2021/04/24 10:44:57;;;;;;;11.30;4.95;;;16.00;60.00;;;;;;4941604;29;20031;-91
2021/04/24 10:47:38;;;;;;;7.43;4.32;;;16.10;59.70;;;;;;4958036;29;20027;-91
2021/04/24 10:50:07;;;;;;;8.70;4.57;;;16.20;59.50;;;;;;4950404;28;20071;-92
2021/04/24 10:52:33;;;;;;;10.82;4.05;;;16.30;59.20;;;;;;4956876;29;20023;-91
2021/04/24 10:55:16;;;;;;;10.85;4.72;;;16.40;58.80;;;;;;4940215;29;20487;-92
2021/04/24 10:57:45;;;;;;;12.60;4.82;;;16.50;58.60;;;;;;4940480;28;20056;-92
2021/04/24 11:00:33;;;;;;;9.70;4.88;;;16.50;58.00;;;;;;4969097;28;20038;-92
2021/04/24 11:03:01;;;;;;;12.93;4.90;;;16.60;57.90;;;;;;4939650;29;20038;-92
2021/04/24 11:05:30;;;;;;;8.68;4.35;;;16.70;57.60;;;;;;4952531;28;20525;-93
2021/04/24 11:08:11;;;;;;;12.55;4.82;;;16.70;57.40;;;;;;4953919;28;20085;-93
2021/04/24 11:10:46;;;;;;;10.38;4.35;;;16.90;57.00;;;;;;4950326;28;20034;-91
2021/04/24 11:13:16;;;;;;;8.32;4.70;;;16.90;56.50;;;;;;4959162;28;20070;-92
2021/04/24 11:15:43;;;;;;;13.45;5.50;;;17.00;56.20;;;;;;4980707;28;20041;-91
2021/04/24 11:18:11;;;;;;;7.65;4.22;;;17.00;55.70;;;;;;4959809;28;20022;-92
2021/04/24 11:20:50;;;;;;;10.43;4.55;;;17.00;55.50;;;;;;4962954;28;20035;-93
2021/04/24 11:23:54;;;;;;;9.07;4.53;;;17.10;55.50;;;;;;4982060;28;20042;-93
2021/04/24 11:26:24;;;;;;;7.90;4.80;;;17.10;55.50;;;;;;4986989;28;20035;-92
2021/04/24 11:29:02;;;;;;;9.45;5.00;;;17.10;55.20;;;;;;4960679;29;20027;-93
2021/04/24 11:31:56;;;;;;;11.52;5.15;;;17.10;55.20;;;;;;4974572;29;20079;-92
2021/04/24 11:34:29;;;;;;;11.82;5.15;;;17.20;55.10;;;;;;4961141;28;20027;-94
2021/04/24 11:37:28;;;;;;;10.10;4.90;;;17.30;54.90;;;;;;4968978;29;20102;-94
2021/04/24 11:40:28;;;;;;;7.57;5.00;;;17.40;54.70;;;;;;4952528;29;20034;-93
2021/04/24 11:42:56;;;;;;;9.85;5.10;;;17.40;54.60;;;;;;4943055;29;20107;-93
2021/04/24 11:45:45;;;;;;;9.98;5.20;;;17.40;54.60;;;;;;4940214;29;20040;-93
2021/04/24 11:48:11;;;;;;;9.80;4.78;;;17.40;54.40;;;;;;4925210;29;20034;-93
2021/04/24 11:50:42;;;;;;;9.98;5.00;;;17.40;54.40;;;;;;4926005;29;20023;-92
2021/04/24 11:53:09;;;;;;;8.30;4.60;;;17.60;54.40;;;;;;4921976;29;20055;-94
2021/04/24 11:55:37;;;;;;;16.75;7.28;;;17.90;54.30;;;;;;4939209;29;20107;-93
2021/04/24 11:58:12;;;;;;;12.45;6.68;;;18.40;54.00;;;;;;4923954;29;20039;-93
2021/04/24 12:00:42;;;;;;;10.32;5.55;;;18.70;53.70;;;;;;4924546;29;20063;-93
2021/04/24 12:03:07;;;;;;;13.10;5.97;;;19.00;53.50;;;;;;4920505;29;20039;-94
2021/04/24 12:05:43;;;;;;;7.13;4.57;;;19.30;53.10;;;;;;4920775;29;20399;-94
2021/04/24 12:08:29;;;;;;;9.85;5.40;;;19.50;52.30;;;;;;4921176;29;20030;-95
2021/04/24 12:10:55;;;;;;;9.32;4.80;;;19.90;51.60;;;;;;4920990;29;20031;-94
2021/04/24 12:13:20;;;;;;;8.75;4.63;;;20.20;51.00;;;;;;4925312;29;20042;-93
2021/04/24 12:15:51;;;;;;;14.95;4.60;;;20.30;50.50;;;;;;4924423;29;20158;-95
2021/04/24 12:18:17;;;;;;;10.32;4.60;;;20.40;50.20;;;;;;4939011;29;20032;-94
2021/04/24 12:20:45;;;;;;;7.63;3.95;;;20.50;49.90;;;;;;4923043;29;20124;-93
2021/04/24 12:23:14;;;;;;;6.07;3.13;;;20.70;49.40;;;;;;4938662;29;20035;-94
2021/04/24 12:25:46;;;;;;;9.23;3.50;;;20.70;48.50;;;;;;4920152;29;20028;-93
2021/04/24 12:28:12;;;;;;;11.77;3.47;;;20.70;48.10;;;;;;4920353;29;20076;-92
2021/04/24 12:30:39;;;;;;;10.65;4.20;;;20.70;47.80;;;;;;4937653;29;20050;-93
2021/04/24 12:33:09;;;;;;;8.95;3.78;;;20.70;47.70;;;;;;4938869;29;20130;-93
2021/04/24 12:35:37;;;;;;;10.35;5.65;;;20.90;48.00;;;;;;4939545;29;20043;-95
2021/04/24 12:38:09;;;;;;;12.50;4.70;;;21.20;47.90;;;;;;4943124;29;20028;-92
2021/04/24 12:40:38;;;;;;;11.40;4.28;;;21.40;47.20;;;;;;4941980;29;20178;-93
2021/04/24 12:43:25;;;;;;;9.82;4.60;;;21.70;46.70;;;;;;4924414;29;20032;-92
2021/04/24 12:45:53;;;;;;;12.43;4.75;;;21.90;46.10;;;;;;4927458;29;20036;-92
2021/04/24 12:48:21;;;;;;;14.07;4.82;;;22.00;45.90;;;;;;4933862;29;20022;-92
2021/04/24 12:50:52;;;;;;;8.80;4.85;;;21.90;45.90;;;;;;4943479;29;20035;-95
2021/04/24 12:53:39;;;;;;;10.43;4.93;;;21.70;45.80;;;;;;4942222;29;20035;-94
2021/04/24 12:56:11;;;;;;;15.25;5.55;;;21.70;45.80;;;;;;4943750;29;20107;-95
2021/04/24 12:58:42;;;;;;;7.68;4.20;;;21.70;45.60;;;;;;4941867;29;20091;-95